sensor_id;sensor_type;location;lat;lon;timestamp;P1;durP1;ratioP1;P2;durP2;ratioP2
75639;SDS011;64233;51.486;6.332;2022-10-16T00:00:39;5.88;;;2.47;;
75639;SDS011;64233;51.486;6.332;2022-10-16T00:03:06;5.40;;;2.33;;
75639;SDS011;64233;51.486;6.332;2022-10-16T00:05:32;3.28;;;2.10;;
75639;SDS011;64233;51.486;6.332;2022-10-16T00:07:58;11.13;;;2.40;;
75639;SDS011;64233;51.486;6.332;2022-10-16T00:10:23;2.67;;;1.80;;
75639;SDS011;64233;51.486;6.332;2022-10-16T00:12:49;2.22;;;1.42;;
75639;SDS011;64233;51.486;6.332;2022-10-16T00:15:15;3.28;;;2.25;;
75639;SDS011;64233;51.486;6.332;2022-10-16T00:17:40;4.72;;;1.75;;
75639;SDS011;64233;51.486;6.332;2022-10-16T00:20:06;2.60;;;2.10;;
75639;SDS011;64233;51.486;6.332;2022-10-16T00:22:32;3.53;;;1.63;;
75639;SDS011;64233;51.486;6.332;2022-10-16T00:24:58;4.18;;;1.90;;
75639;SDS011;64233;51.486;6.332;2022-10-16T00:27:23;6.93;;;2.05;;
75639;SDS011;64233;51.486;6.332;2022-10-16T00:29:49;4.53;;;1.90;;
75639;SDS011;64233;51.486;6.332;2022-10-16T00:32:16;2.60;;;1.83;;
75639;SDS011;64233;51.486;6.332;2022-10-16T00:34:42;6.03;;;2.03;;
75639;SDS011;64233;51.486;6.332;2022-10-16T00:37:08;4.55;;;1.90;;
75639;SDS011;64233;51.486;6.332;2022-10-16T00:39:33;2.25;;;1.65;;
75639;SDS011;64233;51.486;6.332;2022-10-16T00:41:59;4.88;;;1.98;;
75639;SDS011;64233;51.486;6.332;2022-10-16T00:47:12;4.25;;;1.42;;
75639;SDS011;64233;51.486;6.332;2022-10-16T00:49:48;4.07;;;1.80;;
75639;SDS011;64233;51.486;6.332;2022-10-16T00:52:16;2.55;;;1.45;;
75639;SDS011;64233;51.486;6.332;2022-10-16T00:54:43;4.78;;;1.85;;
75639;SDS011;64233;51.486;6.332;2022-10-16T00:57:11;3.10;;;1.85;;
75639;SDS011;64233;51.486;6.332;2022-10-16T00:59:38;3.20;;;1.58;;
75639;SDS011;64233;51.486;6.332;2022-10-16T01:02:06;4.80;;;2.00;;
75639;SDS011;64233;51.486;6.332;2022-10-16T01:04:38;3.47;;;1.48;;
75639;SDS011;64233;51.486;6.332;2022-10-16T01:07:12;3.25;;;1.65;;
75639;SDS011;64233;51.486;6.332;2022-10-16T01:12:50;5.25;;;1.67;;
75639;SDS011;64233;51.486;6.332;2022-10-16T01:21:19;3.72;;;1.80;;
75639;SDS011;64233;51.486;6.332;2022-10-16T01:23:50;1.55;;;1.27;;
75639;SDS011;64233;51.486;6.332;2022-10-16T01:40:45;3.03;;;1.65;;
75639;SDS011;64233;51.486;6.332;2022-10-16T01:43:15;1.70;;;1.40;;
75639;SDS011;64233;51.486;6.332;2022-10-16T01:45:44;1.35;;;1.23;;
75639;SDS011;64233;51.486;6.332;2022-10-16T01:48:11;2.00;;;1.45;;
75639;SDS011;64233;51.486;6.332;2022-10-16T01:50:40;3.40;;;1.80;;
75639;SDS011;64233;51.486;6.332;2022-10-16T01:53:08;2.15;;;1.52;;
75639;SDS011;64233;51.486;6.332;2022-10-16T01:55:39;2.47;;;1.33;;
75639;SDS011;64233;51.486;6.332;2022-10-16T01:58:10;5.20;;;1.75;;
75639;SDS011;64233;51.486;6.332;2022-10-16T02:00:37;2.10;;;1.40;;
75639;SDS011;64233;51.486;6.332;2022-10-16T02:03:05;2.40;;;1.35;;
75639;SDS011;64233;51.486;6.332;2022-10-16T02:05:47;2.83;;;1.63;;
75639;SDS011;64233;51.486;6.332;2022-10-16T02:08:17;1.80;;;1.05;;
75639;SDS011;64233;51.486;6.332;2022-10-16T02:10:44;3.85;;;1.23;;
75639;SDS011;64233;51.486;6.332;2022-10-16T02:13:13;2.47;;;1.45;;
75639;SDS011;64233;51.486;6.332;2022-10-16T02:15:44;4.43;;;1.33;;
75639;SDS011;64233;51.486;6.332;2022-10-16T02:18:10;2.25;;;1.40;;
75639;SDS011;64233;51.486;6.332;2022-10-16T02:20:38;2.75;;;1.50;;
75639;SDS011;64233;51.486;6.332;2022-10-16T02:23:12;1.77;;;1.50;;
75639;SDS011;64233;51.486;6.332;2022-10-16T02:25:44;1.88;;;1.08;;
75639;SDS011;64233;51.486;6.332;2022-10-16T02:28:19;2.78;;;1.65;;
75639;SDS011;64233;51.486;6.332;2022-10-16T02:30:51;1.92;;;1.08;;
75639;SDS011;64233;51.486;6.332;2022-10-16T02:33:21;3.13;;;1.50;;
75639;SDS011;64233;51.486;6.332;2022-10-16T02:35:50;1.30;;;1.05;;
75639;SDS011;64233;51.486;6.332;2022-10-16T02:38:17;1.95;;;1.23;;
75639;SDS011;64233;51.486;6.332;2022-10-16T02:40:44;2.55;;;1.35;;
75639;SDS011;64233;51.486;6.332;2022-10-16T02:43:09;4.70;;;1.40;;
75639;SDS011;64233;51.486;6.332;2022-10-16T02:45:36;1.90;;;1.35;;
75639;SDS011;64233;51.486;6.332;2022-10-16T02:48:01;3.53;;;1.40;;
75639;SDS011;64233;51.486;6.332;2022-10-16T02:50:27;1.83;;;1.25;;
75639;SDS011;64233;51.486;6.332;2022-10-16T02:52:52;5.13;;;1.10;;
75639;SDS011;64233;51.486;6.332;2022-10-16T02:55:18;1.15;;;1.00;;
75639;SDS011;64233;51.486;6.332;2022-10-16T02:57:43;1.88;;;1.23;;
75639;SDS011;64233;51.486;6.332;2022-10-16T03:00:09;1.95;;;0.90;;
75639;SDS011;64233;51.486;6.332;2022-10-16T03:02:38;2.47;;;1.10;;
75639;SDS011;64233;51.486;6.332;2022-10-16T03:05:03;3.85;;;1.30;;
75639;SDS011;64233;51.486;6.332;2022-10-16T03:07:29;1.05;;;0.95;;
75639;SDS011;64233;51.486;6.332;2022-10-16T03:09:54;1.73;;;1.27;;
75639;SDS011;64233;51.486;6.332;2022-10-16T03:12:20;6.35;;;1.30;;
75639;SDS011;64233;51.486;6.332;2022-10-16T03:14:46;1.25;;;1.02;;
75639;SDS011;64233;51.486;6.332;2022-10-16T03:17:12;1.98;;;0.88;;
75639;SDS011;64233;51.486;6.332;2022-10-16T03:19:38;2.80;;;1.23;;
75639;SDS011;64233;51.486;6.332;2022-10-16T03:22:04;1.17;;;0.80;;
75639;SDS011;64233;51.486;6.332;2022-10-16T03:24:29;3.13;;;0.85;;
75639;SDS011;64233;51.486;6.332;2022-10-16T03:26:55;0.68;;;0.63;;
75639;SDS011;64233;51.486;6.332;2022-10-16T03:29:20;3.42;;;0.82;;
75639;SDS011;64233;51.486;6.332;2022-10-16T03:31:45;1.50;;;0.88;;
75639;SDS011;64233;51.486;6.332;2022-10-16T03:34:13;2.20;;;0.88;;
75639;SDS011;64233;51.486;6.332;2022-10-16T03:36:39;1.50;;;1.00;;
75639;SDS011;64233;51.486;6.332;2022-10-16T03:39:04;0.90;;;0.90;;
75639;SDS011;64233;51.486;6.332;2022-10-16T03:41:30;1.00;;;0.73;;
75639;SDS011;64233;51.486;6.332;2022-10-16T03:43:55;2.03;;;1.40;;
75639;SDS011;64233;51.486;6.332;2022-10-16T03:46:20;1.35;;;0.90;;
75639;SDS011;64233;51.486;6.332;2022-10-16T03:48:46;1.90;;;1.10;;
75639;SDS011;64233;51.486;6.332;2022-10-16T03:51:11;1.02;;;0.93;;
75639;SDS011;64233;51.486;6.332;2022-10-16T03:53:39;2.25;;;1.05;;
75639;SDS011;64233;51.486;6.332;2022-10-16T03:56:05;0.82;;;0.73;;
75639;SDS011;64233;51.486;6.332;2022-10-16T03:58:30;0.70;;;0.70;;
75639;SDS011;64233;51.486;6.332;2022-10-16T04:00:56;0.68;;;0.60;;
75639;SDS011;64233;51.486;6.332;2022-10-16T04:03:21;1.02;;;0.82;;
75639;SDS011;64233;51.486;6.332;2022-10-16T04:05:48;1.02;;;0.55;;
75639;SDS011;64233;51.486;6.332;2022-10-16T04:08:13;1.30;;;1.00;;
75639;SDS011;64233;51.486;6.332;2022-10-16T04:10:38;5.70;;;1.00;;
75639;SDS011;64233;51.486;6.332;2022-10-16T04:13:04;4.97;;;0.82;;
75639;SDS011;64233;51.486;6.332;2022-10-16T04:15:29;2.83;;;1.45;;
75639;SDS011;64233;51.486;6.332;2022-10-16T04:17:55;1.98;;;1.05;;
75639;SDS011;64233;51.486;6.332;2022-10-16T04:20:20;1.70;;;1.10;;
75639;SDS011;64233;51.486;6.332;2022-10-16T04:22:46;2.08;;;1.02;;
75639;SDS011;64233;51.486;6.332;2022-10-16T04:25:11;5.78;;;1.10;;
75639;SDS011;64233;51.486;6.332;2022-10-16T04:27:37;2.45;;;1.15;;
75639;SDS011;64233;51.486;6.332;2022-10-16T04:30:03;1.20;;;0.77;;
75639;SDS011;64233;51.486;6.332;2022-10-16T04:32:30;1.95;;;1.00;;
75639;SDS011;64233;51.486;6.332;2022-10-16T04:34:55;2.03;;;0.90;;
75639;SDS011;64233;51.486;6.332;2022-10-16T04:37:24;1.15;;;1.05;;
75639;SDS011;64233;51.486;6.332;2022-10-16T04:39:50;2.72;;;1.00;;
75639;SDS011;64233;51.486;6.332;2022-10-16T04:42:16;1.05;;;0.82;;
75639;SDS011;64233;51.486;6.332;2022-10-16T04:44:41;4.97;;;1.10;;
75639;SDS011;64233;51.486;6.332;2022-10-16T04:47:06;3.75;;;1.33;;
75639;SDS011;64233;51.486;6.332;2022-10-16T04:49:32;1.05;;;0.95;;
75639;SDS011;64233;51.486;6.332;2022-10-16T04:51:58;1.60;;;0.98;;
75639;SDS011;64233;51.486;6.332;2022-10-16T04:54:23;1.63;;;1.20;;
75639;SDS011;64233;51.486;6.332;2022-10-16T04:56:49;3.25;;;1.15;;
75639;SDS011;64233;51.486;6.332;2022-10-16T04:59:16;1.10;;;1.00;;
75639;SDS011;64233;51.486;6.332;2022-10-16T05:01:43;1.90;;;0.93;;
75639;SDS011;64233;51.486;6.332;2022-10-16T05:04:09;3.45;;;0.95;;
75639;SDS011;64233;51.486;6.332;2022-10-16T05:06:34;1.00;;;0.80;;
75639;SDS011;64233;51.486;6.332;2022-10-16T05:09:00;1.52;;;1.10;;
75639;SDS011;64233;51.486;6.332;2022-10-16T05:11:25;0.95;;;0.90;;
75639;SDS011;64233;51.486;6.332;2022-10-16T05:13:51;2.03;;;0.90;;
75639;SDS011;64233;51.486;6.332;2022-10-16T05:16:16;1.20;;;1.10;;
75639;SDS011;64233;51.486;6.332;2022-10-16T05:18:42;2.28;;;1.27;;
75639;SDS011;64233;51.486;6.332;2022-10-16T05:21:07;1.35;;;1.10;;
75639;SDS011;64233;51.486;6.332;2022-10-16T05:23:33;2.33;;;0.75;;
75639;SDS011;64233;51.486;6.332;2022-10-16T05:25:58;3.15;;;0.77;;
75639;SDS011;64233;51.486;6.332;2022-10-16T05:28:27;1.33;;;1.10;;
75639;SDS011;64233;51.486;6.332;2022-10-16T05:30:55;2.70;;;1.30;;
75639;SDS011;64233;51.486;6.332;2022-10-16T05:33:21;1.23;;;0.90;;
75639;SDS011;64233;51.486;6.332;2022-10-16T05:35:48;3.22;;;1.20;;
75639;SDS011;64233;51.486;6.332;2022-10-16T05:38:14;1.30;;;1.10;;
75639;SDS011;64233;51.486;6.332;2022-10-16T05:40:41;2.50;;;1.00;;
75639;SDS011;64233;51.486;6.332;2022-10-16T05:43:06;3.75;;;1.63;;
75639;SDS011;64233;51.486;6.332;2022-10-16T05:45:32;1.48;;;0.90;;
75639;SDS011;64233;51.486;6.332;2022-10-16T05:47:58;4.28;;;1.05;;
75639;SDS011;64233;51.486;6.332;2022-10-16T05:50:24;1.30;;;1.20;;
75639;SDS011;64233;51.486;6.332;2022-10-16T05:52:50;3.88;;;1.25;;
75639;SDS011;64233;51.486;6.332;2022-10-16T05:55:15;1.98;;;1.20;;
75639;SDS011;64233;51.486;6.332;2022-10-16T05:57:40;1.08;;;0.98;;
75639;SDS011;64233;51.486;6.332;2022-10-16T06:00:06;1.95;;;1.30;;
75639;SDS011;64233;51.486;6.332;2022-10-16T06:02:32;1.13;;;1.02;;
75639;SDS011;64233;51.486;6.332;2022-10-16T06:04:58;1.60;;;1.00;;
75639;SDS011;64233;51.486;6.332;2022-10-16T06:07:23;3.60;;;1.30;;
75639;SDS011;64233;51.486;6.332;2022-10-16T06:09:49;1.42;;;1.08;;
75639;SDS011;64233;51.486;6.332;2022-10-16T06:12:15;3.35;;;1.67;;
75639;SDS011;64233;51.486;6.332;2022-10-16T06:14:41;3.22;;;1.27;;
75639;SDS011;64233;51.486;6.332;2022-10-16T06:17:06;3.95;;;1.23;;
75639;SDS011;64233;51.486;6.332;2022-10-16T06:19:31;1.23;;;1.05;;
75639;SDS011;64233;51.486;6.332;2022-10-16T06:21:57;1.50;;;1.20;;
75639;SDS011;64233;51.486;6.332;2022-10-16T06:24:23;3.58;;;1.15;;
75639;SDS011;64233;51.486;6.332;2022-10-16T06:26:49;2.17;;;1.30;;
75639;SDS011;64233;51.486;6.332;2022-10-16T06:29:14;4.05;;;1.48;;
75639;SDS011;64233;51.486;6.332;2022-10-16T06:31:40;2.33;;;1.60;;
75639;SDS011;64233;51.486;6.332;2022-10-16T06:34:05;5.72;;;1.75;;
75639;SDS011;64233;51.486;6.332;2022-10-16T06:36:34;1.48;;;1.10;;
75639;SDS011;64233;51.486;6.332;2022-10-16T06:38:59;2.92;;;1.33;;
75639;SDS011;64233;51.486;6.332;2022-10-16T06:41:25;6.13;;;1.75;;
75639;SDS011;64233;51.486;6.332;2022-10-16T06:43:51;3.83;;;1.40;;
75639;SDS011;64233;51.486;6.332;2022-10-16T06:46:18;1.98;;;1.33;;
75639;SDS011;64233;51.486;6.332;2022-10-16T06:48:45;2.88;;;1.70;;
75639;SDS011;64233;51.486;6.332;2022-10-16T06:51:12;4.20;;;2.28;;
75639;SDS011;64233;51.486;6.332;2022-10-16T06:53:40;4.70;;;2.13;;
75639;SDS011;64233;51.486;6.332;2022-10-16T06:56:08;1.33;;;1.15;;
75639;SDS011;64233;51.486;6.332;2022-10-16T06:58:36;1.83;;;1.38;;
75639;SDS011;64233;51.486;6.332;2022-10-16T07:01:03;3.15;;;1.98;;
75639;SDS011;64233;51.486;6.332;2022-10-16T07:03:29;1.83;;;1.60;;
75639;SDS011;64233;51.486;6.332;2022-10-16T07:05:54;4.32;;;1.58;;
75639;SDS011;64233;51.486;6.332;2022-10-16T07:08:20;1.60;;;1.27;;
75639;SDS011;64233;51.486;6.332;2022-10-16T07:10:45;3.63;;;2.13;;
75639;SDS011;64233;51.486;6.332;2022-10-16T07:13:11;2.80;;;2.00;;
75639;SDS011;64233;51.486;6.332;2022-10-16T07:15:39;2.30;;;1.60;;
75639;SDS011;64233;51.486;6.332;2022-10-16T07:18:05;2.92;;;1.80;;
75639;SDS011;64233;51.486;6.332;2022-10-16T07:20:31;2.47;;;1.75;;
75639;SDS011;64233;51.486;6.332;2022-10-16T07:22:56;2.20;;;1.83;;
75639;SDS011;64233;51.486;6.332;2022-10-16T07:25:22;1.90;;;1.55;;
75639;SDS011;64233;51.486;6.332;2022-10-16T07:27:47;1.88;;;1.38;;
75639;SDS011;64233;51.486;6.332;2022-10-16T07:30:13;2.42;;;1.80;;
75639;SDS011;64233;51.486;6.332;2022-10-16T07:32:38;4.43;;;1.52;;
75639;SDS011;64233;51.486;6.332;2022-10-16T07:35:04;2.08;;;1.77;;
75639;SDS011;64233;51.486;6.332;2022-10-16T07:37:29;3.17;;;1.77;;
75639;SDS011;64233;51.486;6.332;2022-10-16T07:39:55;5.25;;;1.73;;
75639;SDS011;64233;51.486;6.332;2022-10-16T07:42:20;2.95;;;1.77;;
75639;SDS011;64233;51.486;6.332;2022-10-16T07:44:46;2.55;;;1.75;;
75639;SDS011;64233;51.486;6.332;2022-10-16T07:47:11;3.25;;;2.05;;
75639;SDS011;64233;51.486;6.332;2022-10-16T07:49:37;3.72;;;1.85;;
75639;SDS011;64233;51.486;6.332;2022-10-16T07:52:02;3.17;;;1.85;;
75639;SDS011;64233;51.486;6.332;2022-10-16T07:54:28;2.38;;;1.60;;
75639;SDS011;64233;51.486;6.332;2022-10-16T07:56:53;2.45;;;1.55;;
75639;SDS011;64233;51.486;6.332;2022-10-16T07:59:18;2.00;;;1.67;;
75639;SDS011;64233;51.486;6.332;2022-10-16T08:01:48;1.83;;;1.48;;
75639;SDS011;64233;51.486;6.332;2022-10-16T08:04:14;3.50;;;1.55;;
75639;SDS011;64233;51.486;6.332;2022-10-16T08:06:39;2.00;;;1.42;;
75639;SDS011;64233;51.486;6.332;2022-10-16T08:09:06;4.10;;;1.45;;
75639;SDS011;64233;51.486;6.332;2022-10-16T08:11:32;3.40;;;2.03;;
75639;SDS011;64233;51.486;6.332;2022-10-16T08:13:57;2.70;;;1.65;;
75639;SDS011;64233;51.486;6.332;2022-10-16T08:16:23;2.85;;;1.60;;
75639;SDS011;64233;51.486;6.332;2022-10-16T08:18:49;3.42;;;1.60;;
75639;SDS011;64233;51.486;6.332;2022-10-16T08:21:17;2.20;;;1.75;;
75639;SDS011;64233;51.486;6.332;2022-10-16T08:23:44;2.38;;;1.40;;
75639;SDS011;64233;51.486;6.332;2022-10-16T08:26:09;4.30;;;2.28;;
75639;SDS011;64233;51.486;6.332;2022-10-16T08:28:36;2.75;;;2.33;;
75639;SDS011;64233;51.486;6.332;2022-10-16T08:31:09;5.38;;;1.90;;
75639;SDS011;64233;51.486;6.332;2022-10-16T08:33:36;1.75;;;1.65;;
75639;SDS011;64233;51.486;6.332;2022-10-16T08:36:03;1.85;;;1.20;;
75639;SDS011;64233;51.486;6.332;2022-10-16T08:38:30;8.20;;;1.63;;
75639;SDS011;64233;51.486;6.332;2022-10-16T08:46:41;2.47;;;1.17;;
75639;SDS011;64233;51.486;6.332;2022-10-16T08:49:13;2.05;;;1.10;;
75639;SDS011;64233;51.486;6.332;2022-10-16T08:51:40;3.53;;;1.27;;
75639;SDS011;64233;51.486;6.332;2022-10-16T08:54:15;2.15;;;1.65;;
75639;SDS011;64233;51.486;6.332;2022-10-16T08:56:47;2.08;;;1.42;;
75639;SDS011;64233;51.486;6.332;2022-10-16T08:59:13;3.03;;;1.30;;
75639;SDS011;64233;51.486;6.332;2022-10-16T09:01:41;1.80;;;1.40;;
75639;SDS011;64233;51.486;6.332;2022-10-16T09:07:37;3.80;;;1.10;;
75639;SDS011;64233;51.486;6.332;2022-10-16T09:10:15;1.92;;;1.25;;
75639;SDS011;64233;51.486;6.332;2022-10-16T09:23:37;3.25;;;1.30;;
75639;SDS011;64233;51.486;6.332;2022-10-16T09:26:03;2.90;;;1.13;;
75639;SDS011;64233;51.486;6.332;2022-10-16T09:28:33;5.55;;;1.20;;
75639;SDS011;64233;51.486;6.332;2022-10-16T09:31:01;11.18;;;1.40;;
75639;SDS011;64233;51.486;6.332;2022-10-16T09:33:34;1.95;;;1.25;;
75639;SDS011;64233;51.486;6.332;2022-10-16T09:36:03;2.30;;;0.95;;
75639;SDS011;64233;51.486;6.332;2022-10-16T09:38:31;2.03;;;1.20;;
75639;SDS011;64233;51.486;6.332;2022-10-16T09:41:20;1.02;;;0.93;;
75639;SDS011;64233;51.486;6.332;2022-10-16T09:43:56;5.05;;;1.20;;
75639;SDS011;64233;51.486;6.332;2022-10-16T09:48:58;2.47;;;1.08;;
75639;SDS011;64233;51.486;6.332;2022-10-16T09:56:34;2.28;;;0.93;;
75639;SDS011;64233;51.486;6.332;2022-10-16T09:59:11;3.33;;;1.45;;
75639;SDS011;64233;51.486;6.332;2022-10-16T10:01:46;2.42;;;1.02;;
75639;SDS011;64233;51.486;6.332;2022-10-16T10:04:13;1.77;;;1.05;;
75639;SDS011;64233;51.486;6.332;2022-10-16T10:06:49;3.90;;;1.02;;
75639;SDS011;64233;51.486;6.332;2022-10-16T10:09:21;1.83;;;0.98;;
75639;SDS011;64233;51.486;6.332;2022-10-16T10:11:59;4.47;;;1.58;;
75639;SDS011;64233;51.486;6.332;2022-10-16T10:14:31;1.67;;;1.02;;
75639;SDS011;64233;51.486;6.332;2022-10-16T10:19:29;2.50;;;0.77;;
75639;SDS011;64233;51.486;6.332;2022-10-16T10:22:02;2.63;;;1.20;;
75639;SDS011;64233;51.486;6.332;2022-10-16T10:38:25;4.03;;;0.65;;
75639;SDS011;64233;51.486;6.332;2022-10-16T10:47:04;1.55;;;0.88;;
75639;SDS011;64233;51.486;6.332;2022-10-16T11:07:57;2.55;;;1.10;;
75639;SDS011;64233;51.486;6.332;2022-10-16T11:10:42;6.68;;;1.20;;
75639;SDS011;64233;51.486;6.332;2022-10-16T11:13:27;4.22;;;1.15;;
75639;SDS011;64233;51.486;6.332;2022-10-16T11:16:00;3.63;;;0.88;;
75639;SDS011;64233;51.486;6.332;2022-10-16T11:18:40;3.30;;;1.20;;
75639;SDS011;64233;51.486;6.332;2022-10-16T11:21:14;1.80;;;0.50;;
75639;SDS011;64233;51.486;6.332;2022-10-16T11:26:25;4.47;;;0.93;;
75639;SDS011;64233;51.486;6.332;2022-10-16T11:28:54;3.75;;;1.08;;
75639;SDS011;64233;51.486;6.332;2022-10-16T11:31:40;0.60;;;0.50;;
75639;SDS011;64233;51.486;6.332;2022-10-16T11:34:32;2.70;;;0.90;;
75639;SDS011;64233;51.486;6.332;2022-10-16T11:39:50;2.00;;;0.70;;
75639;SDS011;64233;51.486;6.332;2022-10-16T11:50:01;2.47;;;1.00;;
75639;SDS011;64233;51.486;6.332;2022-10-16T11:55:21;3.60;;;0.82;;
75639;SDS011;64233;51.486;6.332;2022-10-16T11:57:57;0.70;;;0.43;;
75639;SDS011;64233;51.486;6.332;2022-10-16T12:00:28;2.58;;;0.77;;
75639;SDS011;64233;51.486;6.332;2022-10-16T12:08:17;1.35;;;0.65;;
75639;SDS011;64233;51.486;6.332;2022-10-16T12:10:44;2.35;;;0.60;;
75639;SDS011;64233;51.486;6.332;2022-10-16T12:18:32;2.58;;;0.55;;
75639;SDS011;64233;51.486;6.332;2022-10-16T12:20:59;3.25;;;0.80;;
75639;SDS011;64233;51.486;6.332;2022-10-16T12:23:31;1.30;;;1.15;;
75639;SDS011;64233;51.486;6.332;2022-10-16T12:26:02;2.35;;;0.70;;
75639;SDS011;64233;51.486;6.332;2022-10-16T12:28:32;2.08;;;0.70;;
75639;SDS011;64233;51.486;6.332;2022-10-16T12:30:59;1.95;;;0.60;;
75639;SDS011;64233;51.486;6.332;2022-10-16T12:33:36;2.70;;;1.35;;
75639;SDS011;64233;51.486;6.332;2022-10-16T12:36:13;2.38;;;0.85;;
75639;SDS011;64233;51.486;6.332;2022-10-16T12:38:52;8.43;;;0.93;;
75639;SDS011;64233;51.486;6.332;2022-10-16T12:41:32;1.75;;;0.73;;
75639;SDS011;64233;51.486;6.332;2022-10-16T12:44:00;3.95;;;0.70;;
75639;SDS011;64233;51.486;6.332;2022-10-16T12:49:06;2.72;;;0.90;;
75639;SDS011;64233;51.486;6.332;2022-10-16T12:54:11;3.17;;;0.60;;
75639;SDS011;64233;51.486;6.332;2022-10-16T12:56:53;1.30;;;0.57;;
75639;SDS011;64233;51.486;6.332;2022-10-16T13:10:47;0.90;;;0.60;;
75639;SDS011;64233;51.486;6.332;2022-10-16T13:15:50;4.18;;;1.00;;
75639;SDS011;64233;51.486;6.332;2022-10-16T13:18:46;1.33;;;0.60;;
75639;SDS011;64233;51.486;6.332;2022-10-16T13:29:31;1.52;;;0.77;;
75639;SDS011;64233;51.486;6.332;2022-10-16T13:31:58;1.40;;;1.05;;
75639;SDS011;64233;51.486;6.332;2022-10-16T13:34:26;5.55;;;1.23;;
75639;SDS011;64233;51.486;6.332;2022-10-16T13:36:52;3.38;;;0.88;;
75639;SDS011;64233;51.486;6.332;2022-10-16T13:39:22;3.25;;;0.80;;
75639;SDS011;64233;51.486;6.332;2022-10-16T13:42:12;4.88;;;0.90;;
75639;SDS011;64233;51.486;6.332;2022-10-16T13:44:49;1.43;;;0.70;;
75639;SDS011;64233;51.486;6.332;2022-10-16T13:47:23;1.85;;;0.95;;
75639;SDS011;64233;51.486;6.332;2022-10-16T13:52:47;2.03;;;0.73;;
75639;SDS011;64233;51.486;6.332;2022-10-16T13:55:15;3.13;;;0.60;;
75639;SDS011;64233;51.486;6.332;2022-10-16T13:57:42;2.88;;;0.47;;
75639;SDS011;64233;51.486;6.332;2022-10-16T14:00:24;1.98;;;1.00;;
75639;SDS011;64233;51.486;6.332;2022-10-16T14:03:11;0.73;;;0.52;;
75639;SDS011;64233;51.486;6.332;2022-10-16T14:06:14;0.80;;;0.80;;
75639;SDS011;64233;51.486;6.332;2022-10-16T14:08:37;2.22;;;0.55;;
75639;SDS011;64233;51.486;6.332;2022-10-16T14:11:08;1.77;;;0.77;;
75639;SDS011;64233;51.486;6.332;2022-10-16T14:13:36;1.20;;;0.75;;
75639;SDS011;64233;51.486;6.332;2022-10-16T14:16:07;2.25;;;0.90;;
75639;SDS011;64233;51.486;6.332;2022-10-16T14:18:35;3.20;;;0.60;;
75639;SDS011;64233;51.486;6.332;2022-10-16T14:21:07;1.85;;;0.63;;
75639;SDS011;64233;51.486;6.332;2022-10-16T14:23:40;0.73;;;0.50;;
75639;SDS011;64233;51.486;6.332;2022-10-16T14:28:35;2.03;;;0.63;;
75639;SDS011;64233;51.486;6.332;2022-10-16T14:31:02;2.85;;;0.60;;
75639;SDS011;64233;51.486;6.332;2022-10-16T14:33:45;1.08;;;0.60;;
75639;SDS011;64233;51.486;6.332;2022-10-16T14:36:11;1.88;;;0.70;;
75639;SDS011;64233;51.486;6.332;2022-10-16T14:38:39;1.50;;;0.85;;
75639;SDS011;64233;51.486;6.332;2022-10-16T14:41:07;1.65;;;0.70;;
75639;SDS011;64233;51.486;6.332;2022-10-16T14:46:08;1.05;;;0.60;;
75639;SDS011;64233;51.486;6.332;2022-10-16T14:48:41;2.65;;;0.70;;
75639;SDS011;64233;51.486;6.332;2022-10-16T14:51:15;3.10;;;0.70;;
75639;SDS011;64233;51.486;6.332;2022-10-16T14:53:44;4.55;;;1.40;;
75639;SDS011;64233;51.486;6.332;2022-10-16T14:56:17;2.83;;;1.48;;
75639;SDS011;64233;51.486;6.332;2022-10-16T14:58:47;2.28;;;0.63;;
75639;SDS011;64233;51.486;6.332;2022-10-16T15:01:15;6.50;;;1.70;;
75639;SDS011;64233;51.486;6.332;2022-10-16T15:03:40;2.58;;;0.52;;
75639;SDS011;64233;51.486;6.332;2022-10-16T15:06:12;4.35;;;1.33;;
75639;SDS011;64233;51.486;6.332;2022-10-16T15:08:39;2.13;;;0.70;;
75639;SDS011;64233;51.486;6.332;2022-10-16T15:11:05;2.13;;;1.00;;
75639;SDS011;64233;51.486;6.332;2022-10-16T15:13:35;4.13;;;0.63;;
75639;SDS011;64233;51.486;6.332;2022-10-16T15:16:01;1.50;;;0.93;;
75639;SDS011;64233;51.486;6.332;2022-10-16T15:18:26;3.88;;;1.08;;
75639;SDS011;64233;51.486;6.332;2022-10-16T15:20:52;1.50;;;0.80;;
75639;SDS011;64233;51.486;6.332;2022-10-16T15:23:18;1.10;;;0.77;;
75639;SDS011;64233;51.486;6.332;2022-10-16T15:25:46;1.23;;;0.85;;
75639;SDS011;64233;51.486;6.332;2022-10-16T15:28:13;1.00;;;0.77;;
75639;SDS011;64233;51.486;6.332;2022-10-16T15:30:39;3.10;;;0.80;;
75639;SDS011;64233;51.486;6.332;2022-10-16T15:33:08;3.15;;;1.15;;
75639;SDS011;64233;51.486;6.332;2022-10-16T15:35:45;1.65;;;0.80;;
75639;SDS011;64233;51.486;6.332;2022-10-16T15:38:12;0.65;;;0.65;;
75639;SDS011;64233;51.486;6.332;2022-10-16T15:40:39;1.10;;;0.90;;
75639;SDS011;64233;51.486;6.332;2022-10-16T15:43:05;1.10;;;1.00;;
75639;SDS011;64233;51.486;6.332;2022-10-16T15:45:31;0.88;;;0.80;;
75639;SDS011;64233;51.486;6.332;2022-10-16T15:47:56;1.65;;;1.10;;
75639;SDS011;64233;51.486;6.332;2022-10-16T15:50:22;1.20;;;0.77;;
75639;SDS011;64233;51.486;6.332;2022-10-16T15:52:47;4.35;;;0.93;;
75639;SDS011;64233;51.486;6.332;2022-10-16T15:55:13;2.17;;;1.30;;
75639;SDS011;64233;51.486;6.332;2022-10-16T15:57:39;4.93;;;1.08;;
75639;SDS011;64233;51.486;6.332;2022-10-16T16:00:10;1.85;;;1.27;;
75639;SDS011;64233;51.486;6.332;2022-10-16T16:02:41;1.58;;;1.00;;
75639;SDS011;64233;51.486;6.332;2022-10-16T16:05:07;2.15;;;1.27;;
75639;SDS011;64233;51.486;6.332;2022-10-16T16:07:35;2.72;;;1.00;;
75639;SDS011;64233;51.486;6.332;2022-10-16T16:10:01;3.92;;;1.65;;
75639;SDS011;64233;51.486;6.332;2022-10-16T16:12:28;1.50;;;1.13;;
75639;SDS011;64233;51.486;6.332;2022-10-16T16:14:53;9.85;;;3.10;;
75639;SDS011;64233;51.486;6.332;2022-10-16T16:17:18;1.70;;;0.95;;
75639;SDS011;64233;51.486;6.332;2022-10-16T16:19:45;2.58;;;1.30;;
75639;SDS011;64233;51.486;6.332;2022-10-16T16:22:10;4.03;;;1.00;;
75639;SDS011;64233;51.486;6.332;2022-10-16T16:24:36;3.33;;;1.00;;
75639;SDS011;64233;51.486;6.332;2022-10-16T16:27:01;2.53;;;0.98;;
75639;SDS011;64233;51.486;6.332;2022-10-16T16:29:27;2.55;;;1.55;;
75639;SDS011;64233;51.486;6.332;2022-10-16T16:31:52;1.77;;;1.40;;
75639;SDS011;64233;51.486;6.332;2022-10-16T16:34:22;3.83;;;1.63;;
75639;SDS011;64233;51.486;6.332;2022-10-16T16:36:49;2.75;;;1.60;;
75639;SDS011;64233;51.486;6.332;2022-10-16T16:39:15;3.25;;;1.80;;
75639;SDS011;64233;51.486;6.332;2022-10-16T16:41:40;4.03;;;2.70;;
75639;SDS011;64233;51.486;6.332;2022-10-16T16:44:07;3.85;;;2.63;;
75639;SDS011;64233;51.486;6.332;2022-10-16T16:46:35;5.47;;;2.60;;
75639;SDS011;64233;51.486;6.332;2022-10-16T16:49:01;3.33;;;1.60;;
75639;SDS011;64233;51.486;6.332;2022-10-16T16:51:28;3.67;;;1.60;;
75639;SDS011;64233;51.486;6.332;2022-10-16T16:53:54;12.23;;;2.15;;
75639;SDS011;64233;51.486;6.332;2022-10-16T16:56:21;1.73;;;1.48;;
75639;SDS011;64233;51.486;6.332;2022-10-16T16:58:48;3.50;;;1.42;;
75639;SDS011;64233;51.486;6.332;2022-10-16T17:01:15;2.95;;;1.77;;
75639;SDS011;64233;51.486;6.332;2022-10-16T17:03:42;3.30;;;1.83;;
75639;SDS011;64233;51.486;6.332;2022-10-16T17:06:14;2.03;;;1.45;;
75639;SDS011;64233;51.486;6.332;2022-10-16T17:08:40;3.15;;;1.55;;
75639;SDS011;64233;51.486;6.332;2022-10-16T17:11:05;3.42;;;1.38;;
75639;SDS011;64233;51.486;6.332;2022-10-16T17:13:36;2.47;;;1.60;;
75639;SDS011;64233;51.486;6.332;2022-10-16T17:16:02;4.80;;;2.00;;
75639;SDS011;64233;51.486;6.332;2022-10-16T17:18:29;3.45;;;1.70;;
75639;SDS011;64233;51.486;6.332;2022-10-16T17:20:56;7.72;;;2.08;;
75639;SDS011;64233;51.486;6.332;2022-10-16T17:23:24;5.80;;;2.10;;
75639;SDS011;64233;51.486;6.332;2022-10-16T17:25:49;4.13;;;2.10;;
75639;SDS011;64233;51.486;6.332;2022-10-16T17:28:14;3.13;;;1.83;;
75639;SDS011;64233;51.486;6.332;2022-10-16T17:30:40;2.20;;;2.00;;